Time;durP1;ratioP1;P1;durP2;ratioP2;P2;SDS_P1;SDS_P2;PMS_P1;PMS_P2;Temp;Humidity;BMP_temperature;BMP_pressure;BME280_temperature;BME280_humidity;BME280_pressure;Samples;Min_cycle;Max_cycle;Signal;HPM_P1;HPM_P2
2021/11/15 00:00:21;;;;;;;55.38;25.95;;;;;;;7.69;75.14;100887.00;5067943;28;20041;-21
2021/11/15 00:02:46;;;;;;;52.90;25.27;;;;;;;7.52;75.45;100884.50;5067884;28;20029;-20
2021/11/15 00:05:12;;;;;;;52.92;25.25;;;;;;;7.50;75.66;100878.53;5068028;28;20037;-21
2021/11/15 00:07:38;;;;;;;50.55;25.25;;;;;;;7.37;76.73;100883.63;5068004;28;20548;-21
2021/11/15 00:10:04;;;;;;;48.15;24.55;;;;;;;7.72;75.72;100889.28;5049798;28;20055;-21
2021/11/15 00:12:30;;;;;;;49.10;24.08;;;;;;;7.77;75.34;100887.75;5067285;28;20040;-20
2021/11/15 00:14:55;;;;;;;50.22;24.33;;;;;;;7.91;74.70;100888.78;5067859;28;20475;-21
2021/11/15 00:17:20;;;;;;;56.03;27.75;;;;;;;8.12;73.78;100889.91;5067806;28;20040;-21
2021/11/15 00:19:46;;;;;;;51.85;24.42;;;;;;;7.97;74.15;100880.09;5067755;28;20492;-21
2021/11/15 00:22:11;;;;;;;52.95;27.02;;;;;;;8.00;74.11;100889.53;5067472;28;20028;-21
2021/11/15 00:24:37;;;;;;;49.35;25.80;;;;;;;7.98;74.20;100887.03;5067924;28;20044;-21
2021/11/15 00:27:03;;;;;;;54.28;26.48;;;;;;;7.91;74.59;100883.47;5067710;28;20446;-21
2021/11/15 00:29:29;;;;;;;53.83;26.05;;;;;;;8.04;73.98;100888.97;5067939;28;20037;-21
2021/11/15 00:31:54;;;;;;;48.75;27.33;;;;;;;8.13;74.29;100907.50;5067652;28;20046;-21
2021/11/15 00:34:20;;;;;;;52.00;26.23;;;;;;;7.98;74.25;100905.63;5067686;28;20484;-21
2021/11/15 00:36:45;;;;;;;52.63;25.27;;;;;;;7.93;74.39;100900.06;5071207;28;20031;-20
2021/11/15 00:39:11;;;;;;;49.05;24.95;;;;;;;7.59;75.84;100901.34;5071154;28;20090;-20
2021/11/15 00:41:37;;;;;;;48.90;25.13;;;;;;;7.33;77.40;100898.22;5071253;28;20024;-21
2021/11/15 00:44:02;;;;;;;52.70;26.42;;;;;;;7.52;76.77;100887.16;5071446;28;20039;-21
2021/11/15 00:46:28;;;;;;;50.80;28.25;;;;;;;7.65;77.14;100892.66;5053116;28;20032;-21
2021/11/15 00:48:56;;;;;;;50.67;25.58;;;;;;;7.59;76.82;100896.03;5053196;28;20035;-21
2021/11/15 00:51:29;;;;;;;48.40;25.40;;;;;;;7.27;78.60;100894.44;5071005;28;20111;-21
2021/11/15 00:53:54;;;;;;;54.15;27.15;;;;;;;7.65;77.55;100892.66;5070976;28;20148;-20
2021/11/15 00:56:20;;;;;;;50.15;26.73;;;;;;;7.46;77.47;100871.94;5070656;28;20419;-20
2021/11/15 00:58:45;;;;;;;55.85;28.85;;;;;;;7.63;77.21;100892.03;5071211;28;20028;-20
2021/11/15 01:01:11;;;;;;;53.60;27.88;;;;;;;7.42;77.53;100870.66;5070775;28;20485;-21
2021/11/15 01:03:36;;;;;;;53.50;27.85;;;;;;;7.74;77.14;100889.94;5052742;28;20035;-21
2021/11/15 01:06:02;;;;;;;56.15;28.98;;;;;;;7.47;77.72;100886.84;5071230;28;20063;-21
2021/11/15 01:08:27;;;;;;;47.47;26.58;;;;;;;7.75;76.90;100881.81;5071248;28;20120;-20
2021/11/15 01:10:53;;;;;;;53.30;26.40;;;;;;;7.84;76.57;100885.19;5070703;28;20135;-21
2021/11/15 01:13:22;;;;;;;54.00;28.15;;;;;;;7.62;77.24;100882.41;5070703;28;20129;-21
2021/11/15 01:15:47;;;;;;;53.78;27.55;;;;;;;7.81;76.78;100881.09;5052972;28;20025;-21
2021/11/15 01:18:13;;;;;;;50.10;25.60;;;;;;;7.31;78.61;100894.94;5070603;28;20036;-21
2021/11/15 01:20:39;;;;;;;59.20;27.70;;;;;;;7.78;76.96;100881.41;5070679;28;20464;-21
2021/11/15 01:23:05;;;;;;;56.28;28.08;;;;;;;7.59;77.06;100856.22;5053097;28;20549;-21
2021/11/15 01:25:30;;;;;;;56.05;27.25;;;;;;;7.68;77.08;100880.03;5052726;28;20116;-21
2021/11/15 01:27:56;;;;;;;55.53;29.27;;;;;;;8.04;75.47;100870.38;5070633;28;20104;-21
2021/11/15 01:30:22;;;;;;;58.50;28.75;;;;;;;8.15;74.78;100865.63;5070128;28;20039;-20
2021/11/15 01:32:48;;;;;;;56.42;27.60;;;;;;;7.47;77.28;100857.66;5070499;28;20037;-20
2021/11/15 01:35:13;;;;;;;56.80;28.98;;;;;;;7.24;78.45;100853.19;5070247;28;20500;-21
2021/11/15 01:37:39;;;;;;;60.13;30.45;;;;;;;7.39;78.79;100855.88;5070317;28;20484;-21
2021/11/15 01:40:06;;;;;;;53.88;28.05;;;;;;;7.58;77.92;100875.81;5070138;28;20036;-20
2021/11/15 01:42:31;;;;;;;56.83;28.55;;;;;;;7.90;76.26;100879.16;5069856;28;20028;-20
2021/11/15 01:44:57;;;;;;;59.05;28.73;;;;;;;7.84;76.34;100861.28;5052358;28;20507;-21
2021/11/15 01:47:23;;;;;;;59.88;28.35;;;;;;;7.78;76.60;100869.97;5069241;28;20033;-21
2021/11/15 01:49:48;;;;;;;59.90;29.15;;;;;;;8.00;75.40;100863.78;5052567;28;20048;-21
2021/11/15 01:52:14;;;;;;;55.92;28.67;;;;;;;8.16;74.60;100877.91;5069720;28;20032;-21
2021/11/15 01:54:39;;;;;;;53.97;27.85;;;;;;;7.84;75.57;100875.38;5069877;28;20059;-20
2021/11/15 01:57:05;;;;;;;57.88;29.95;;;;;;;8.15;74.99;100889.53;5051722;28;20032;-20
2021/11/15 01:59:30;;;;;;;58.22;28.23;;;;;;;8.20;74.42;100884.50;5069722;28;20094;-20
2021/11/15 02:01:56;;;;;;;54.35;27.65;;;;;;;7.98;74.89;100870.28;5069566;28;20029;-21
2021/11/15 02:04:21;;;;;;;55.00;28.23;;;;;;;7.18;78.35;100859.22;5069754;28;20040;-20
2021/11/15 02:06:47;;;;;;;55.83;30.95;;;;;;;7.43;78.15;100882.91;5069573;28;20029;-21
2021/11/15 02:09:12;;;;;;;52.13;29.05;;;;;;;7.64;77.05;100880.41;5069291;28;20545;-21
2021/11/15 02:11:38;;;;;;;57.97;28.50;;;;;;;8.04;75.56;100894.28;5051606;28;20032;-20
2021/11/15 02:14:04;;;;;;;60.60;31.98;;;;;;;8.12;75.09;100889.91;5069188;28;20056;-21
2021/11/15 02:16:29;;;;;;;62.17;31.70;;;;;;;8.01;75.59;100888.53;5069191;28;20604;-20
2021/11/15 02:18:55;;;;;;;61.13;31.95;;;;;;;7.76;76.30;100882.63;5051752;28;20111;-21
2021/11/15 02:21:22;;;;;;;58.33;29.88;;;;;;;7.90;75.87;100889.78;5069249;28;20024;-21
2021/11/15 02:23:48;;;;;;;64.65;30.77;;;;;;;7.72;76.81;100891.94;5069121;28;20068;-21
2021/11/15 02:26:14;;;;;;;58.38;28.15;;;;;;;7.62;77.38;100869.16;5068814;28;20059;-20
2021/11/15 02:28:42;;;;;;;60.78;29.25;;;;;;;7.74;76.87;100876.66;5051396;28;20032;-21
2021/11/15 02:31:09;;;;;;;58.72;29.42;;;;;;;7.74;76.66;100884.63;5068978;28;20510;-21
2021/11/15 02:33:34;;;;;;;60.10;30.27;;;;;;;8.03;76.23;100884.69;5069438;28;20111;-21
2021/11/15 02:36:00;;;;;;;59.72;30.73;;;;;;;7.92;76.29;100893.09;5069038;28;20115;-20
2021/11/15 02:38:26;;;;;;;60.78;32.35;;;;;;;7.57;77.51;100868.84;5068608;28;20484;-21
2021/11/15 02:40:51;;;;;;;57.35;29.38;;;;;;;7.98;76.13;100881.72;5069472;28;20039;-20
2021/11/15 02:43:17;;;;;;;57.30;28.63;;;;;;;7.82;76.79;100887.22;5068952;28;20036;-21
2021/11/15 02:45:42;;;;;;;52.65;27.77;;;;;;;8.21;74.95;100888.81;5068799;28;20028;-21
2021/11/15 02:48:08;;;;;;;58.67;29.20;;;;;;;8.13;75.42;100891.53;5050793;28;20072;-21
2021/11/15 02:50:33;;;;;;;57.17;28.80;;;;;;;8.08;75.66;100897.41;5068642;28;20047;-21
2021/11/15 02:53:01;;;;;;;60.13;29.48;;;;;;;8.10;75.06;100879.47;5068788;28;20021;-20
2021/11/15 02:55:27;;;;;;;55.17;28.77;;;;;;;8.09;75.42;100872.50;5068590;28;20055;-20
2021/11/15 02:57:53;;;;;;;59.58;30.10;;;;;;;8.23;74.78;100884.97;5068805;28;20071;-20
2021/11/15 03:00:27;;;;;;;58.53;28.70;;;;;;;7.90;75.65;100868.53;5067230;28;20150;-20
2021/11/15 03:02:54;;;;;;;57.25;29.67;;;;;;;7.94;75.99;100885.75;5068587;28;20032;-21
2021/11/15 03:05:30;;;;;;;53.75;29.13;;;;;;;7.83;76.38;100878.25;5068487;28;20488;-21
2021/11/15 03:07:56;;;;;;;54.40;27.77;;;;;;;7.41;77.99;100875.09;5050872;28;20036;-21
2021/11/15 03:10:22;;;;;;;51.40;27.05;;;;;;;7.67;77.57;100883.72;5068146;28;20029;-20
2021/11/15 03:12:47;;;;;;;52.50;28.15;;;;;;;7.56;78.14;100898.22;5068411;28;20508;-20
2021/11/15 03:15:30;;;;;;;59.33;29.08;;;;;;;7.94;76.65;100888.41;5068446;28;20174;-21
2021/11/15 03:18:13;;;;;;;55.72;28.25;;;;;;;7.90;76.58;100879.16;5050639;28;20040;-21
2021/11/15 03:20:50;;;;;;;56.10;29.70;;;;;;;8.03;76.02;100883.88;5068299;28;20119;-21
2021/11/15 03:23:21;;;;;;;58.80;29.25;;;;;;;8.20;76.00;100900.44;5068366;28;20059;-21
2021/11/15 03:25:47;;;;;;;55.00;29.15;;;;;;;8.18;74.96;100887.34;5068363;28;20032;-21
2021/11/15 03:28:14;;;;;;;54.13;29.30;;;;;;;8.19;75.63;100899.63;5068607;28;20074;-20
2021/11/15 03:30:40;;;;;;;59.23;30.40;;;;;;;8.36;74.83;100894.97;5050462;28;20033;-21
2021/11/15 03:33:06;;;;;;;52.80;27.70;;;;;;;8.38;74.31;100890.28;5068140;28;20044;-20
2021/11/15 03:35:32;;;;;;;58.22;32.65;;;;;;;8.50;73.97;100892.50;5068301;28;20119;-20
2021/11/15 03:37:57;;;;;;;58.97;28.70;;;;;;;8.40;74.24;100895.41;5067929;28;20063;-21
2021/11/15 03:40:24;;;;;;;57.72;30.63;;;;;;;8.20;74.48;100881.84;5068034;28;20515;-21
2021/11/15 03:42:51;;;;;;;56.67;28.98;;;;;;;8.40;73.78;100901.56;5068092;28;20120;-22
2021/11/15 03:45:16;;;;;;;55.83;28.90;;;;;;;8.30;74.23;100903.66;5068470;28;20036;-21
2021/11/15 03:47:42;;;;;;;58.28;30.30;;;;;;;8.29;74.63;100896.69;5068193;28;20040;-21
2021/11/15 03:50:08;;;;;;;58.63;28.42;;;;;;;7.98;75.04;100884.38;5067879;28;20036;-22
2021/11/15 03:52:34;;;;;;;54.63;31.33;;;;;;;8.08;74.96;100875.34;5067932;28;20135;-22
2021/11/15 03:54:59;;;;;;;61.90;31.20;;;;;;;8.31;75.07;100880.56;5068089;28;20028;-21
2021/11/15 03:57:25;;;;;;;59.08;30.42;;;;;;;8.38;75.08;100882.31;5068217;28;20404;-21
2021/11/15 03:59:51;;;;;;;57.60;30.85;;;;;;;8.13;76.25;100889.75;5067814;28;20036;-20
2021/11/15 04:02:17;;;;;;;59.65;28.98;;;;;;;8.16;76.20;100899.16;5067905;28;20099;-20
2021/11/15 04:04:53;;;;;;;62.40;31.10;;;;;;;8.31;75.50;100902.63;5067810;28;20029;-21
2021/11/15 04:07:27;;;;;;;59.13;30.75;;;;;;;8.26;75.47;100902.38;5068259;28;20101;-21
2021/11/15 04:09:55;;;;;;;61.10;29.48;;;;;;;8.03;76.10;100900.63;5052226;28;20028;-21
2021/11/15 04:12:20;;;;;;;57.45;29.73;;;;;;;7.79;77.14;100887.59;5071596;28;20749;-20
2021/11/15 04:14:46;;;;;;;61.63;31.40;;;;;;;7.81;77.67;100901.50;5071661;28;20109;-21
2021/11/15 04:17:11;;;;;;;63.10;31.60;;;;;;;7.91;77.76;100895.94;5071862;28;20032;-20
2021/11/15 04:19:37;;;;;;;58.10;30.25;;;;;;;8.09;76.99;100899.09;5071912;28;20413;-20
2021/11/15 04:22:02;;;;;;;58.50;30.85;;;;;;;8.21;76.62;100902.09;5053398;28;20079;-21
2021/11/15 04:24:28;;;;;;;62.17;31.05;;;;;;;8.19;75.98;100896.97;5071576;28;20028;-21
2021/11/15 04:26:53;;;;;;;58.63;30.38;;;;;;;8.18;76.29;100890.00;5071565;28;20028;-21
2021/11/15 04:29:19;;;;;;;62.67;30.95;;;;;;;8.28;75.95;100899.53;5036115;28;20028;-21
2021/11/15 04:31:44;;;;;;;60.05;31.20;;;;;;;8.39;76.18;100910.53;5070094;28;20032;-21
2021/11/15 04:34:10;;;;;;;54.30;30.00;;;;;;;8.15;75.79;100900.16;5070831;28;20037;-21
2021/11/15 04:36:35;;;;;;;62.55;30.70;;;;;;;8.09;76.66;100914.16;5071710;28;20094;-21
2021/11/15 04:39:01;;;;;;;61.78;30.83;;;;;;;8.04;75.73;100917.38;5071538;28;20041;-21
2021/11/15 04:41:26;;;;;;;59.97;30.08;;;;;;;8.08;76.00;100907.22;5071170;28;20477;-20
2021/11/15 04:43:52;;;;;;;62.72;30.63;;;;;;;8.04;76.54;100902.25;5071096;28;20032;-20
2021/11/15 04:46:17;;;;;;;57.45;30.77;;;;;;;8.12;76.50;100919.13;5071158;28;20484;-20
2021/11/15 04:48:43;;;;;;;59.08;30.88;;;;;;;8.05;76.15;100914.56;5071026;28;20047;-21
2021/11/15 04:51:09;;;;;;;54.15;29.25;;;;;;;7.94;76.51;100904.34;5071107;28;20033;-20
2021/11/15 04:53:35;;;;;;;57.15;29.45;;;;;;;7.99;75.96;100894.03;5070927;28;20118;-21
2021/11/15 04:56:01;;;;;;;55.90;29.30;;;;;;;8.04;76.07;100912.88;5070917;28;20032;-21
2021/11/15 04:58:26;;;;;;;65.55;32.33;;;;;;;8.06;76.15;100912.72;5070704;28;20040;-21
2021/11/15 05:00:52;;;;;;;59.30;30.98;;;;;;;7.88;76.60;100907.72;5071499;28;20060;-21
2021/11/15 05:03:17;;;;;;;61.15;31.02;;;;;;;8.14;76.23;100927.75;5069741;28;20028;-20
2021/11/15 05:05:43;;;;;;;56.13;32.30;;;;;;;8.07;76.41;100926.81;5070963;28;20032;-20
2021/11/15 05:08:09;;;;;;;67.00;31.17;;;;;;;8.03;76.94;100935.16;5070444;28;20036;-20
2021/11/15 05:10:35;;;;;;;57.08;29.50;;;;;;;8.09;75.93;100940.75;5070740;28;20038;-21
2021/11/15 05:13:03;;;;;;;57.88;28.52;;;;;;;8.00;76.66;100945.31;5070549;28;20060;-20
2021/11/15 05:15:28;;;;;;;57.92;28.75;;;;;;;7.96;75.88;100920.94;5070694;28;20119;-21
2021/11/15 05:17:54;;;;;;;55.67;28.05;;;;;;;8.28;75.07;100952.69;5052639;28;20123;-20
2021/11/15 05:20:20;;;;;;;53.25;29.05;;;;;;;8.43;74.90;100954.34;5070219;28;20059;-20
2021/11/15 05:22:46;;;;;;;56.35;29.00;;;;;;;7.98;76.12;100948.13;5069394;28;20123;-20
2021/11/15 05:25:13;;;;;;;56.28;31.83;;;;;;;8.10;76.09;100958.34;5070439;28;20130;-21
2021/11/15 05:27:39;;;;;;;55.42;28.73;;;;;;;8.16;75.99;100957.63;5070506;28;20036;-20
2021/11/15 05:30:05;;;;;;;56.30;29.48;;;;;;;7.93;77.18;100963.81;5070431;28;20029;-20
2021/11/15 05:32:30;;;;;;;56.47;27.65;;;;;;;7.70;77.74;100955.84;5070240;28;20434;-21
2021/11/15 05:34:57;;;;;;;60.25;29.55;;;;;;;7.59;78.48;100973.03;5070424;28;20032;-20
2021/11/15 05:37:23;;;;;;;56.55;29.20;;;;;;;7.75;78.37;100971.25;5070040;28;20162;-21
2021/11/15 05:39:48;;;;;;;57.03;29.10;;;;;;;7.68;78.42;100986.22;5070113;28;20036;-21
2021/11/15 05:42:13;;;;;;;56.10;29.23;;;;;;;7.89;76.38;100973.13;5069895;28;20501;-21
2021/11/15 05:44:39;;;;;;;62.03;29.17;;;;;;;7.95;76.11;100996.31;5070433;28;20032;-21
2021/11/15 05:47:05;;;;;;;57.95;30.20;;;;;;;7.74;76.97;100990.84;5069966;28;20033;-22
2021/11/15 05:49:30;;;;;;;53.45;27.48;;;;;;;7.56;76.46;100967.22;5070309;28;20558;-21
2021/11/15 05:51:56;;;;;;;63.13;29.65;;;;;;;7.75;76.38;100992.50;5070110;28;20028;-21
2021/11/15 05:54:21;;;;;;;58.40;27.92;;;;;;;7.90;75.74;100992.53;5069790;28;20039;-20
2021/11/15 05:56:47;;;;;;;53.33;26.80;;;;;;;8.03;74.99;100985.63;5069925;28;20032;-20
2021/11/15 05:59:13;;;;;;;54.45;26.65;;;;;;;7.92;75.90;100993.19;5069866;28;20031;-21
2021/11/15 06:01:39;;;;;;;54.38;28.38;;;;;;;7.64;77.01;100986.59;5069748;28;20052;-21
2021/11/15 06:04:05;;;;;;;49.75;26.15;;;;;;;7.68;77.12;100976.44;5069911;28;20085;-20
2021/11/15 06:06:31;;;;;;;52.03;26.38;;;;;;;8.36;75.09;100989.81;5069629;28;20060;-21
2021/11/15 06:08:56;;;;;;;51.20;25.95;;;;;;;8.20;74.55;101009.41;5069632;28;20043;-20
2021/11/15 06:11:22;;;;;;;53.65;27.52;;;;;;;8.21;74.76;101011.03;5069404;28;20508;-21
2021/11/15 06:13:47;;;;;;;44.92;25.20;;;;;;;8.15;74.69;101019.72;5069185;28;20137;-21
2021/11/15 06:16:12;;;;;;;54.92;27.65;;;;;;;8.23;75.01;101019.66;5069477;28;20062;-21
2021/11/15 06:18:38;;;;;;;50.28;26.73;;;;;;;8.69;73.37;101024.88;5051508;28;20115;-22
2021/11/15 06:21:04;;;;;;;52.90;26.13;;;;;;;8.48;73.41;101008.81;5069147;28;20119;-20
2021/11/15 06:23:30;;;;;;;47.92;26.08;;;;;;;8.55;73.26;101025.69;5069746;28;20029;-21
2021/11/15 06:25:55;;;;;;;50.63;27.13;;;;;;;8.41;73.40;101032.66;5069604;28;20389;-20
2021/11/15 06:28:21;;;;;;;46.30;25.73;;;;;;;8.33;73.80;101027.38;5069291;28;20028;-21
2021/11/15 06:30:46;;;;;;;50.95;26.75;;;;;;;8.56;72.88;101037.97;5069224;28;20082;-20
2021/11/15 06:33:12;;;;;;;51.17;25.75;;;;;;;8.80;72.42;101040.38;5069000;28;20040;-21
2021/11/15 06:35:37;;;;;;;46.45;25.77;;;;;;;8.57;73.08;101044.97;5069009;28;20075;-21
2021/11/15 06:38:03;;;;;;;47.78;26.20;;;;;;;8.65;72.72;101043.03;5069163;28;20111;-21
2021/11/15 06:40:28;;;;;;;49.83;26.77;;;;;;;8.88;71.80;101041.31;5068773;28;20473;-21
2021/11/15 06:42:54;;;;;;;47.63;25.80;;;;;;;8.69;72.38;101040.84;5068931;28;20025;-20
2021/11/15 06:45:19;;;;;;;47.70;25.88;;;;;;;8.79;71.31;101040.56;5068823;28;20411;-21
2021/11/15 06:47:45;;;;;;;49.90;27.48;;;;;;;8.38;72.62;101023.19;5068900;28;20032;-21
2021/11/15 06:50:13;;;;;;;49.17;26.45;;;;;;;8.31;73.03;101032.88;5068481;28;20399;-22
2021/11/15 06:52:38;;;;;;;53.72;28.95;;;;;;;8.36;73.52;101049.09;5068733;28;20616;-21
2021/11/15 06:55:05;;;;;;;50.95;27.48;;;;;;;8.13;73.93;101054.47;5068811;28;20032;-21
2021/11/15 06:57:30;;;;;;;48.35;26.83;;;;;;;8.05;74.76;101050.03;5068748;28;20060;-21
2021/11/15 06:59:56;;;;;;;49.42;25.73;;;;;;;8.13;74.30;101035.88;5068443;28;20032;-20
2021/11/15 07:02:22;;;;;;;47.55;25.50;;;;;;;8.16;74.09;101034.66;5068465;28;20056;-21
2021/11/15 07:04:48;;;;;;;48.20;24.52;;;;;;;8.40;73.14;101047.75;5068649;28;20032;-21
2021/11/15 07:07:14;;;;;;;48.47;25.30;;;;;;;8.41;73.29;101036.13;5068633;28;20079;-22
2021/11/15 07:09:40;;;;;;;46.85;23.65;;;;;;;8.69;73.01;101054.13;5068713;28;20882;-21
2021/11/15 07:12:06;;;;;;;45.40;25.33;;;;;;;8.59;73.29;101040.28;5068662;28;20039;-21
2021/11/15 07:14:31;;;;;;;44.22;24.55;;;;;;;8.95;71.85;101052.84;5068265;28;20140;-21
2021/11/15 07:16:57;;;;;;;47.30;25.60;;;;;;;8.64;72.39;101054.69;5068479;28;20408;-21
2021/11/15 07:19:22;;;;;;;51.45;26.35;;;;;;;9.00;71.50;101051.28;5068551;28;20036;-20
2021/11/15 07:21:48;;;;;;;62.03;33.80;;;;;;;9.20;70.92;101040.09;5050282;28;20123;-20
2021/11/15 07:24:13;;;;;;;66.72;37.25;;;;;;;9.37;70.40;101043.38;5068328;28;20770;-20
2021/11/15 07:26:39;;;;;;;70.10;36.67;;;;;;;9.30;70.81;101048.63;5068301;28;20516;-21
2021/11/15 07:29:04;;;;;;;50.67;27.23;;;;;;;9.16;70.54;101050.28;5068294;28;20545;-20
2021/11/15 07:31:31;;;;;;;52.97;28.73;;;;;;;9.46;70.40;101050.25;5068156;28;20158;-21
2021/11/15 07:33:56;;;;;;;47.28;25.80;;;;;;;9.43;70.73;101051.41;5068277;28;20480;-20
2021/11/15 07:36:22;;;;;;;52.72;27.65;;;;;;;9.62;69.64;101036.69;5067775;28;20036;-21
2021/11/15 07:38:48;;;;;;;50.47;27.23;;;;;;;9.48;70.09;101039.38;5068253;28;20408;-21
2021/11/15 07:41:13;;;;;;;53.10;31.00;;;;;;;9.76;69.44;101047.47;5068332;28;20411;-22
2021/11/15 07:43:39;;;;;;;53.72;28.90;;;;;;;9.97;69.01;101054.63;5068140;28;20036;-21
2021/11/15 07:46:06;;;;;;;46.58;26.92;;;;;;;9.81;68.91;101047.75;5067626;28;20039;-22
2021/11/15 07:48:32;;;;;;;49.65;28.25;;;;;;;9.84;69.00;101050.84;5067881;28;20032;-21
2021/11/15 07:50:59;;;;;;;45.15;26.27;;;;;;;9.75;70.65;101043.19;5068389;28;20094;-21
2021/11/15 07:53:24;;;;;;;45.80;25.52;;;;;;;9.67;70.44;101062.75;5068389;28;20097;-22
2021/11/15 07:55:50;;;;;;;39.58;23.98;;;;;;;10.14;69.55;101058.72;5068087;28;20756;-21
2021/11/15 07:58:16;;;;;;;45.83;25.13;;;;;;;9.98;68.34;101059.78;5067509;28;20032;-21
2021/11/15 08:00:41;;;;;;;47.15;27.17;;;;;;;9.97;69.35;101060.81;5067689;28;20114;-21
2021/11/15 08:03:07;;;;;;;45.47;24.80;;;;;;;9.76;69.50;101066.13;5068263;28;20082;-21
2021/11/15 08:05:32;;;;;;;44.80;23.55;;;;;;;9.98;68.80;101065.13;5049645;28;20060;-21
2021/11/15 08:07:58;;;;;;;41.90;23.15;;;;;;;10.05;68.93;101065.19;5068012;28;20036;-21
2021/11/15 08:10:24;;;;;;;115.43;57.30;;;;;;;10.11;68.97;101059.06;5067619;28;20054;-20
2021/11/15 08:12:51;;;;;;;45.05;25.33;;;;;;;10.05;68.66;101051.84;5067750;28;20036;-21
2021/11/15 08:15:17;;;;;;;48.15;27.35;;;;;;;10.19;68.23;101071.47;5049889;28;20094;-21
2021/11/15 08:17:44;;;;;;;41.65;24.00;;;;;;;9.98;67.53;101064.31;5067777;28;20033;-20
2021/11/15 08:20:12;;;;;;;43.15;25.40;;;;;;;9.98;68.80;101059.78;5067525;28;20198;-21
2021/11/15 08:22:38;;;;;;;43.78;26.30;;;;;;;10.35;68.07;101075.72;5067623;28;20385;-21
2021/11/15 08:25:30;;;;;;;44.90;27.13;;;;;;;10.50;67.70;101075.63;5049748;28;20497;-20
2021/11/15 08:27:59;;;;;;;43.53;25.58;;;;;;;10.30;68.49;101065.66;5067776;28;20024;-20
2021/11/15 08:30:24;;;;;;;;;;;;;;;10.34;67.86;101080.25;5067759;28;20028;-21
2021/11/15 08:32:49;;;;;;;45.67;25.42;;;;;;;10.47;67.82;101071.53;5067696;28;19935;-20
2021/11/15 08:35:16;;;;;;;49.38;25.50;;;;;;;10.55;66.89;101065.22;5033342;28;20033;-20
2021/11/15 08:37:54;;;;;;;45.83;26.83;;;;;;;10.38;68.19;101073.50;5033266;28;20138;-21
2021/11/15 08:40:20;;;;;;;41.03;25.05;;;;;;;10.74;67.17;101074.38;5050198;28;20045;-21
2021/11/15 08:42:45;;;;;;;44.45;26.10;;;;;;;11.26;65.75;101079.19;5067854;28;20039;-21
2021/11/15 08:45:14;;;;;;;45.28;25.00;;;;;;;11.32;64.57;101077.59;5067742;28;20033;-21
2021/11/15 08:47:39;;;;;;;47.63;26.85;;;;;;;11.02;65.50;101074.34;5067894;28;20586;-21
2021/11/15 08:50:05;;;;;;;44.55;25.88;;;;;;;10.86;65.97;101062.97;5067723;28;20058;-20
2021/11/15 08:52:31;;;;;;;44.72;24.88;;;;;;;11.41;63.80;101075.56;5067218;28;20032;-21
2021/11/15 08:54:58;;;;;;;42.63;25.10;;;;;;;11.14;65.63;101080.78;5067671;28;20029;-21
2021/11/15 08:57:23;;;;;;;45.28;25.33;;;;;;;11.21;64.39;101080.81;5070837;28;20039;-20
2021/11/15 08:59:49;;;;;;;43.10;25.58;;;;;;;11.18;64.33;101075.88;5070920;28;20032;-20
2021/11/15 09:02:15;;;;;;;45.97;26.17;;;;;;;11.40;64.16;101079.25;5070665;28;20020;-20
2021/11/15 09:04:40;;;;;;;41.83;25.38;;;;;;;11.50;63.99;101079.69;5070850;28;20411;-21
2021/11/15 09:07:06;;;;;;;44.47;26.98;;;;;;;11.55;64.01;101077.25;5070728;28;20119;-21
2021/11/15 09:09:32;;;;;;;43.80;25.85;;;;;;;11.59;62.92;101065.16;5070722;28;20428;-20
2021/11/15 09:11:59;;;;;;;42.90;24.67;;;;;;;11.56;62.81;101062.88;5070925;28;20043;-21
2021/11/15 09:14:25;;;;;;;40.78;24.00;;;;;;;11.60;62.23;101066.78;5052103;28;20484;-20
2021/11/15 09:16:51;;;;;;;42.70;24.77;;;;;;;11.77;61.74;101061.06;5052858;28;20568;-21
2021/11/15 09:19:17;;;;;;;54.60;29.63;;;;;;;11.66;61.98;101060.63;5070679;28;20078;-21
2021/11/15 09:21:43;;;;;;;47.30;25.85;;;;;;;11.75;61.96;101060.44;5070289;28;20021;-21
2021/11/15 09:24:09;;;;;;;47.53;26.65;;;;;;;11.75;61.40;101066.63;5071049;28;20032;-21
2021/11/15 09:26:35;;;;;;;42.70;25.67;;;;;;;12.05;60.92;101056.44;5036036;28;20067;-21
2021/11/15 09:29:01;;;;;;;42.70;23.95;;;;;;;12.23;60.98;101041.63;5070830;28;20043;-21
2021/11/15 09:31:27;;;;;;;53.08;28.65;;;;;;;12.18;60.90;101044.09;5070344;28;20511;-20
2021/11/15 09:33:52;;;;;;;42.08;24.27;;;;;;;12.57;59.72;101061.16;5070386;28;20075;-21
2021/11/15 09:36:22;;;;;;;36.03;21.98;;;;;;;12.26;59.70;101049.25;5069844;28;20040;-21
2021/11/15 09:38:49;;;;;;;40.53;23.35;;;;;;;12.38;59.88;101044.94;5070204;28;20040;-21
2021/11/15 09:41:14;;;;;;;36.20;22.35;;;;;;;12.34;59.10;101048.19;5070013;28;20033;-21
2021/11/15 09:43:40;;;;;;;40.75;25.13;;;;;;;12.46;60.56;101049.22;5070215;28;20032;-20
2021/11/15 09:46:10;;;;;;;40.70;23.63;;;;;;;12.18;60.00;101049.47;5052060;28;20130;-20
2021/11/15 09:48:38;;;;;;;38.30;23.20;;;;;;;12.14;59.42;101034.84;5070056;28;20408;-20
2021/11/15 09:51:04;;;;;;;39.88;22.23;;;;;;;12.24;59.73;101032.59;5070181;28;20036;-20
2021/11/15 09:53:30;;;;;;;41.75;23.05;;;;;;;12.17;59.45;101026.41;5069952;28;20412;-20
2021/11/15 09:55:56;;;;;;;43.70;24.52;;;;;;;11.91;60.83;101036.06;5069777;28;20115;-20
2021/11/15 09:58:22;;;;;;;40.58;23.00;;;;;;;11.92;60.89;101029.69;5069667;28;20102;-20
2021/11/15 10:00:48;;;;;;;41.97;24.52;;;;;;;12.11;61.16;101053.97;5070034;28;20111;-21
2021/11/15 10:03:13;;;;;;;39.47;22.67;;;;;;;11.89;59.48;101030.09;5069639;28;20043;-21
2021/11/15 10:05:39;;;;;;;40.95;24.38;;;;;;;12.02;60.02;101029.28;5069794;28;20109;-21
2021/11/15 10:08:08;;;;;;;37.15;22.60;;;;;;;12.11;60.28;101053.97;5069046;28;20039;-20
2021/11/15 10:10:41;;;;;;;36.88;22.15;;;;;;;11.83;62.13;101052.28;5069609;28;20033;-20
2021/11/15 10:13:15;;;;;;;37.60;22.20;;;;;;;11.67;61.20;101026.75;5069688;28;20040;-21
2021/11/15 10:15:45;;;;;;;39.40;23.58;;;;;;;12.36;60.35;101044.31;5069290;28;20020;-21
2021/11/15 10:18:14;;;;;;;39.75;23.00;;;;;;;12.32;59.79;101034.22;5069412;28;20034;-20
2021/11/15 10:20:50;;;;;;;36.50;21.02;;;;;;;12.71;58.46;101033.34;5069454;28;20028;-20
2021/11/15 10:23:32;;;;;;;38.90;21.30;;;;;;;12.85;57.89;101043.00;5069513;28;20029;-20
2021/11/15 10:26:01;;;;;;;40.70;23.23;;;;;;;12.92;59.12;101058.22;5069190;28;20057;-21
2021/11/15 10:28:28;;;;;;;37.03;22.98;;;;;;;13.05;57.94;101045.59;5069067;28;20036;-20
2021/11/15 10:30:54;;;;;;;43.95;24.60;;;;;;;12.94;59.36;101042.78;5069131;28;20037;-21
2021/11/15 10:33:19;;;;;;;36.88;22.80;;;;;;;12.90;58.59;101047.72;5069054;28;20024;-21
2021/11/15 10:35:48;;;;;;;40.97;23.13;;;;;;;13.29;57.27;101055.84;5069295;28;20028;-20
2021/11/15 10:38:14;;;;;;;39.17;22.70;;;;;;;12.75;57.96;101057.81;5068990;28;20048;-21
2021/11/15 10:40:39;;;;;;;38.72;23.70;;;;;;;12.86;59.09;101063.38;5051386;28;20078;-21
2021/11/15 10:43:08;;;;;;;38.50;22.98;;;;;;;12.84;59.00;101067.28;5068867;28;20028;-20
2021/11/15 10:45:35;;;;;;;41.92;25.40;;;;;;;12.71;58.41;101038.72;5068821;28;20028;-20
2021/11/15 10:48:02;;;;;;;39.90;24.02;;;;;;;12.89;59.54;101061.31;5068826;28;20036;-20
2021/11/15 10:50:44;;;;;;;33.72;22.08;;;;;;;13.16;57.37;101057.53;5068774;28;20032;-21
2021/11/15 10:53:20;;;;;;;48.17;25.75;;;;;;;13.12;58.61;101056.31;5068898;28;20032;-20
2021/11/15 10:56:05;;;;;;;47.03;24.73;;;;;;;12.98;58.77;101063.56;5068627;28;20078;-21
2021/11/15 10:58:37;;;;;;;38.65;23.48;;;;;;;12.68;58.91;101060.53;5068514;28;20054;-21
2021/11/15 11:01:05;;;;;;;37.65;22.58;;;;;;;12.91;59.22;101060.06;5050777;28;20064;-20
2021/11/15 11:03:30;;;;;;;37.50;22.83;;;;;;;13.10;58.13;101066.41;5068676;28;20459;-20
2021/11/15 11:06:00;;;;;;;39.78;24.25;;;;;;;12.67;58.76;101048.19;5068726;28;20041;-20
2021/11/15 11:08:46;;;;;;;45.92;27.90;;;;;;;12.89;58.58;101055.94;5068633;28;20155;-20
2021/11/15 11:11:13;;;;;;;40.17;22.33;;;;;;;12.81;59.67;101071.22;5067983;28;20082;-21